This is the latest recevied weather packets stored in our database for station/object KM4CNW. If no packets are shown the sender has not sent any weather packets the latest 10 day(s).
| Time | Temp. | Humidity | Pressure | Rain* | Wind** | Luminosity | Snow |
|---|---|---|---|---|---|---|---|
| 1777143239 | 28.89° C | 35% | 1002.5 hPa | 0 mm | - | 467 W/m² | - |
| 1777142936 | 28.89° C | 36% | 1002.6 hPa | 0 mm | - | 588 W/m² | - |
| 1777142631 | 28.33° C | 38% | 1002.5 hPa | 0 mm | - | 498 W/m² | - |
| 1777142330 | 27.78° C | 39% | 1002.7 hPa | 0 mm | - | 363 W/m² | - |
| 1777142029 | 27.78° C | 37% | 1002.7 hPa | 0 mm | - | 214 W/m² | - |
| 1777141725 | 27.78° C | 36% | 1002.7 hPa | 0 mm | - | 147 W/m² | - |
| 1777141423 | 28.33° C | 36% | 1002.6 hPa | 0 mm | - | 228 W/m² | - |
| 1777141120 | 28.33° C | 38% | 1002.8 hPa | 0 mm | - | 313 W/m² | - |
| 1777140817 | 28.89° C | 36% | 1003 hPa | 0 mm | - | 312 W/m² | - |
| 1777140513 | 28.89° C | 38% | 1002.9 hPa | 0 mm | - | 346 W/m² | - |
| 1777140212 | 28.89° C | 36% | 1002.9 hPa | 0 mm | - | 329 W/m² | - |
| 1777139908 | 28.89° C | 37% | 1002.9 hPa | 0 mm | - | 855 W/m² | - |
| 1777139606 | 28.33° C | 34% | 1002.7 hPa | 0 mm | - | 503 W/m² | - |
| 1777139305 | 28.33° C | 35% | 1002.8 hPa | 0 mm | - | 541 W/m² | - |
| 1777139002 | 28.33° C | 36% | 1003 hPa | 0 mm | - | 457 W/m² | - |
| 1777138699 | 28.33° C | 36% | 1003.1 hPa | 0 mm | - | 300 W/m² | - |
| 1777138394 | 28.89° C | 36% | 1003.1 hPa | 0 mm | - | 327 W/m² | - |
| 1777138091 | 29.44° C | 36% | 1003.2 hPa | 0 mm | - | 546 W/m² | - |
| 1777137787 | 30° C | 35% | 1003.1 hPa | 0 mm | - | 663 W/m² | - |
| 1777137483 | 29.44° C | 34% | 1003.1 hPa | 0 mm | - | 629 W/m² | - |
| 1777137181 | 28.33° C | 37% | 1003.2 hPa | 0 mm | - | 907 W/m² | - |
| 1777136877 | 28.33° C | 36% | 1003.4 hPa | 0 mm | - | 896 W/m² | - |
| 1777136574 | 27.78° C | 36% | 1003.5 hPa | 0 mm | - | 898 W/m² | - |
| 1777136271 | 28.89° C | 36% | 1003.5 hPa | 0 mm | - | 135 W/m² | - |
| 1777135969 | 28.33° C | 40% | 1003.5 hPa | 0 mm | - | 877 W/m² | - |
* Rain latest hour (hover to see other rain measurements)
** Current wind speed in m/s (hover to see current wind gust speed)